Time;durP1;ratioP1;P1;durP2;ratioP2;P2;SDS_P1;SDS_P2;PMS_P1;PMS_P2;Temp;Humidity;BMP_temperature;BMP_pressure;BME280_temperature;BME280_humidity;BME280_pressure;Samples;Min_cycle;Max_cycle;Signal;HPM_P1;HPM_P2
2022/10/04 00:01:48;;;;;;;;;1.75;1.75;;;;;19.01;34.75;100563.44;146598;571;46017;-78
2022/10/04 00:05:14;;;;;;;;;3.00;2.00;;;;;18.93;34.43;100530.03;146602;736;46010;-66
2022/10/04 00:08:53;;;;;;;;;2.00;1.25;;;;;18.95;34.70;100552.84;146596;565;47013;-70
2022/10/04 00:12:07;;;;;;;;;1.50;1.50;;;;;20.83;34.89;100875.53;146603;677;46020;-70
2022/10/04 00:15:08;;;;;;;;;1.75;1.00;;;;;20.80;34.74;100867.56;146626;564;46013;-72
2022/10/04 00:18:44;;;;;;;;;2.00;2.00;;;;;18.96;36.07;100541.47;146629;668;45020;-70
2022/10/04 00:22:13;;;;;;;;;1.50;1.50;;;;;20.82;35.12;100856.19;146625;745;46015;-72
2022/10/04 00:26:03;;;;;;;;;;;;;;;;;;;;;
2022/10/04 00:28:55;;;;;;;;;3.00;3.00;;;;;20.79;37.73;100842.97;146622;602;45015;-71
2022/10/04 00:32:37;;;;;;;;;4.00;3.00;;;;;20.79;37.00;100845.62;146625;653;45021;-71
2022/10/04 00:35:53;;;;;;;;;2.00;2.00;;;;;20.74;36.81;100848.19;146620;630;45917;-72
2022/10/04 00:39:08;;;;;;;;;3.00;3.00;;;;;20.75;37.01;100862.28;146627;656;47012;-70
2022/10/04 00:42:12;;;;;;;;;3.00;2.00;;;;;20.73;37.63;100845.53;146625;631;46917;-72
2022/10/04 00:45:31;;;;;;;;;3.00;3.00;;;;;20.71;37.39;100861.31;146629;564;46010;-70
2022/10/04 00:49:13;;;;;;;;;3.00;3.00;;;;;20.68;37.60;100863.03;146626;593;46012;-73
2022/10/04 00:52:32;;;;;;;;;2.25;2.25;;;;;20.65;37.81;100873.53;146628;631;45021;-67
2022/10/04 00:55:48;;;;;;;;;2.50;2.50;;;;;20.62;38.08;100870.87;146625;593;45915;-79
2022/10/04 00:59:13;;;;;;;;;3.00;3.00;;;;;20.60;38.76;100860.31;146628;689;45012;-77
2022/10/04 01:02:26;;;;;;;;;2.00;2.00;;;;;20.56;38.45;100857.63;146627;721;46012;-67
2022/10/04 01:05:48;;;;;;;;;4.25;2.75;;;;;20.59;38.69;100878.72;146628;611;46010;-69
2022/10/04 01:09:09;;;;;;;;;3.00;3.00;;;;;20.56;38.28;100879.59;146623;576;45038;-66
2022/10/04 01:12:32;;;;;;;;;2.25;2.00;;;;;20.56;37.57;100879.59;146626;669;46010;-67
2022/10/04 01:15:59;;;;;;;;;3.50;3.00;;;;;18.53;38.55;100527.66;146630;563;45012;-66
2022/10/04 01:18:55;;;;;;;;;1.25;1.25;;;;;20.51;39.25;100862.81;146616;594;46020;-70
2022/10/04 01:22:13;;;;;;;;;2.25;2.25;;;;;20.49;39.33;100864.53;146625;665;45917;-69
2022/10/04 01:25:11;;;;;;;;;2.00;2.00;;;;;20.50;38.50;100883.00;146630;665;45020;-70
2022/10/04 01:28:14;;;;;;;;;2.00;2.00;;;;;20.49;39.62;100888.22;146629;599;46013;-68
2022/10/04 01:31:09;;;;;;;;;2.00;0.00;;;;;20.47;39.37;100882.97;146625;579;45912;-70
2022/10/04 01:34:06;;;;;;;;;4.00;4.00;;;;;20.45;39.26;100887.31;146620;626;47917;-71
2022/10/04 01:37:13;;;;;;;;;4.00;4.00;;;;;20.48;39.13;100897.87;146623;564;47010;-74
2022/10/04 01:40:10;;;;;;;;;4.25;3.00;;;;;20.49;39.22;100891.75;146627;575;45012;-72
2022/10/04 01:43:17;;;;;;;;;1.75;1.75;;;;;20.48;39.65;100884.72;146626;612;45021;-69
2022/10/04 01:46:36;;;;;;;;;4.50;4.00;;;;;18.74;39.39;100609.44;146627;592;45016;-68
2022/10/04 01:49:37;;;;;;;;;3.00;3.00;;;;;20.36;40.01;100895.09;146627;585;45020;-70
2022/10/04 01:53:00;;;;;;;;;;;;;;;;;;;;;
2022/10/04 01:56:00;;;;;;;;;3.75;3.75;;;;;20.24;39.96;100894.91;146625;564;46911;-69
2022/10/04 01:58:58;;;;;;;;;4.00;3.00;;;;;20.15;39.56;100895.66;146623;650;45917;-69
2022/10/04 02:02:10;;;;;;;;;2.75;2.00;;;;;20.15;39.51;100903.56;146628;566;46010;-70
2022/10/04 02:05:23;;;;;;;;;3.00;2.50;;;;;20.13;39.61;100889.50;146622;615;45917;-70
2022/10/04 02:08:35;;;;;;;;;4.00;2.33;;;;;20.13;38.75;100902.66;146627;681;45020;-69
2022/10/04 02:11:35;;;;;;;;;3.00;3.00;;;;;20.17;38.92;100906.22;146628;700;45016;-70
2022/10/04 02:14:38;;;;;;;;;3.00;2.00;;;;;20.20;37.97;100907.16;146607;670;46020;-70
2022/10/04 02:17:54;;;;;;;;;4.50;3.50;;;;;20.24;37.50;100911.59;146600;572;46012;-70
2022/10/04 02:20:56;;;;;;;;;4.25;3.25;;;;;20.26;37.03;100911.63;146602;564;46021;-68
2022/10/04 02:24:17;;;;;;;;;3.00;1.75;;;;;20.27;37.57;100924.78;146598;691;46016;-68
2022/10/04 02:27:19;;;;;;;;;4.00;2.75;;;;;20.29;38.60;100915.19;146603;569;46021;-68
2022/10/04 02:30:27;;;;;;;;;2.25;2.25;;;;;20.25;38.83;100905.47;146596;668;47014;-68
2022/10/04 02:33:28;;;;;;;;;3.00;3.00;;;;;20.26;38.62;100909.88;146601;602;47010;-69
2022/10/04 02:36:33;;;;;;;;;3.00;2.00;;;;;18.31;39.25;100586.78;146598;608;46012;-68
2022/10/04 02:39:54;;;;;;;;;3.00;3.00;;;;;17.98;38.68;100528.50;146600;631;46012;-69
2022/10/04 02:43:08;;;;;;;;;3.00;3.00;;;;;19.10;39.30;100734.41;146597;634;47014;-70
2022/10/04 02:46:28;;;;;;;;;3.50;3.00;;;;;18.26;39.62;100599.84;146602;658;46010;-67
2022/10/04 02:49:31;;;;;;;;;2.50;2.50;;;;;20.13;40.66;100944.78;146596;565;47014;-68
2022/10/04 02:52:45;;;;;;;;;4.75;2.50;;;;;20.06;40.72;100946.44;146602;684;46913;-67
2022/10/04 02:55:38;;;;;;;;;1.00;1.00;;;;;19.98;40.11;100947.16;146599;630;46033;-68
2022/10/04 02:58:35;;;;;;;;;4.00;3.25;;;;;19.89;40.71;100952.28;146603;565;46012;-66
2022/10/04 03:01:59;;;;;;;;;6.00;4.25;;;;;19.82;39.98;100946.91;146599;661;46917;-68
2022/10/04 03:05:01;;;;;;;;;2.00;2.00;;;;;19.76;40.93;100946.81;146603;606;46010;-69
2022/10/04 03:07:56;;;;;;;;;4.25;2.75;;;;;19.75;41.18;100949.41;146599;658;47012;-71
2022/10/04 03:10:53;;;;;;;;;3.00;3.00;;;;;19.73;40.64;100946.75;146601;641;46026;-68
2022/10/04 03:14:00;;;;;;;;;3.00;3.00;;;;;19.71;41.24;100950.22;146594;563;47014;-69
2022/10/04 03:16:57;;;;;;;;;2.50;2.00;;;;;19.71;40.69;100958.97;146601;605;46020;-68
2022/10/04 03:20:02;;;;;;;;;3.75;2.50;;;;;19.69;41.50;100963.34;146598;571;46029;-67
2022/10/04 03:23:00;;;;;;;;;2.00;2.00;;;;;19.68;40.25;100948.41;146602;580;46020;-69
2022/10/04 03:26:50;;;;;;;;;;;;;;;;;;;;;
2022/10/04 03:30:03;;;;;;;;;;;;;;;;;;;;;
2022/10/04 03:33:09;;;;;;;;;3.25;2.75;;;;;19.85;40.64;100946.09;146597;574;47016;-69
2022/10/04 03:36:29;;;;;;;;;2.00;2.00;;;;;17.95;40.04;100630.75;146602;644;46012;-68
2022/10/04 03:39:43;;;;;;;;;4.00;3.00;;;;;19.89;39.92;100957.53;146598;694;46016;-68
2022/10/04 03:42:49;;;;;;;;;3.00;2.00;;;;;19.88;40.55;100951.41;146601;700;46021;-68
2022/10/04 03:45:57;;;;;;;;;4.50;3.75;;;;;19.87;39.82;100983.81;146597;658;46012;-73
2022/10/04 03:48:59;;;;;;;;;2.00;2.00;;;;;19.86;40.20;100979.41;146601;571;46916;-70
2022/10/04 03:52:05;;;;;;;;;2.00;2.00;;;;;19.78;40.87;100986.28;146600;573;46915;-68
2022/10/04 03:55:04;;;;;;;;;3.00;2.25;;;;;19.71;40.96;100990.56;146602;599;47011;-67
2022/10/04 03:57:57;;;;;;;;;5.50;3.25;;;;;19.66;40.14;100994.88;146597;571;47014;-68
2022/10/04 04:01:28;;;;;;;;;3.75;1.50;;;;;19.57;40.17;100989.41;146600;627;47010;-67
2022/10/04 04:05:08;;;;;;;;;3.00;1.75;;;;;17.58;40.14;100657.03;146597;643;47014;-67
2022/10/04 04:08:55;;;;;;;;;2.75;2.75;;;;;17.47;39.96;100654.16;146604;578;46020;-71
2022/10/04 04:11:57;;;;;;;;;1.75;1.75;;;;;19.41;40.01;101000.47;146596;588;47012;-67
2022/10/04 04:14:56;;;;;;;;;3.00;2.00;;;;;19.35;40.52;101011.75;146597;680;48012;-70
2022/10/04 04:17:58;;;;;;;;;0.00;0.00;;;;;19.31;40.18;101010.78;146600;564;46012;-70
2022/10/04 04:21:05;;;;;;;;;2.00;1.00;;;;;19.30;39.90;101014.28;146603;585;46010;-70
2022/10/04 04:24:24;;;;;;;;;2.75;2.75;;;;;16.82;39.99;100579.37;146599;586;47012;-70
2022/10/04 04:27:39;;;;;;;;;2.00;2.00;;;;;19.30;39.35;101016.03;146602;688;46020;-69
2022/10/04 04:30:46;;;;;;;;;2.50;2.00;;;;;19.31;39.52;101020.44;146597;579;47012;-70
2022/10/04 04:34:20;;;;;;;;;4.00;3.00;;;;;17.38;39.47;100686.31;146601;570;46021;-71
2022/10/04 04:37:19;;;;;;;;;4.75;3.50;;;;;19.32;39.35;101025.72;146599;563;47012;-70
2022/10/04 04:40:59;;;;;;;;;5.75;3.00;;;;;17.43;39.46;100696.91;146603;571;46021;-71
2022/10/04 04:43:54;;;;;;;;;2.50;2.50;;;;;19.41;39.69;101055.69;146598;575;46012;-69
2022/10/04 04:46:59;;;;;;;;;2.75;2.75;;;;;19.42;39.49;101053.09;146601;623;46023;-66
2022/10/04 04:50:35;;;;;;;;;4.00;2.00;;;;;19.39;39.46;101055.66;146601;693;47012;-67
2022/10/04 04:53:51;;;;;;;;;3.25;2.00;;;;;19.38;38.89;101052.16;146602;689;46020;-68
2022/10/04 04:56:47;;;;;;;;;1.75;1.00;;;;;19.37;38.63;101062.62;146597;564;46017;-69
2022/10/04 04:59:39;;;;;;;;;1.75;1.75;;;;;19.36;39.13;101060.87;146600;631;47010;-68
2022/10/04 05:02:47;;;;;;;;;1.00;1.00;;;;;19.29;39.41;101051.97;146600;608;46017;-67
2022/10/04 05:05:53;;;;;;;;;0.50;0.50;;;;;19.28;39.39;101079.12;146603;572;47010;-73
2022/10/04 05:08:58;;;;;;;;;3.75;1.75;;;;;19.29;39.59;101074.75;146597;557;47012;-72
2022/10/04 05:12:33;;;;;;;;;1.50;1.00;;;;;17.55;39.33;100794.19;146603;565;46010;-70
2022/10/04 05:15:42;;;;;;;;;1.00;0.75;;;;;19.29;39.53;101106.28;146624;652;46015;-75
2022/10/04 05:18:45;;;;;;;;;1.75;1.75;;;;;19.30;39.44;101106.31;146625;589;46010;-76
2022/10/04 05:21:47;;;;;;;;;1.75;1.75;;;;;19.33;39.48;101123.91;146627;661;45029;-71
2022/10/04 05:24:51;;;;;;;;;1.50;1.50;;;;;19.34;39.28;101123.91;146630;651;45012;-68
2022/10/04 05:27:48;;;;;;;;;2.50;2.25;;;;;19.34;39.08;101117.78;146623;658;45917;-69
2022/10/04 05:31:54;;;;;;;;;1.00;1.00;;;;;17.39;39.24;100785.06;146617;587;46011;-69
2022/10/04 05:34:53;;;;;;;;;1.00;1.00;;;;;19.35;39.03;101120.47;146625;584;46012;-68
2022/10/04 05:38:36;;;;;;;;;2.50;2.50;;;;;19.33;38.95;101123.91;146627;602;46010;-69
2022/10/04 05:42:11;;;;;;;;;2.00;2.00;;;;;19.35;39.60;101136.22;146627;573;45012;-67
2022/10/04 05:45:27;;;;;;;;;2.25;2.25;;;;;19.37;40.02;101131.87;146626;597;45020;-70
2022/10/04 05:48:28;;;;;;;;;2.00;2.00;;;;;19.69;39.88;101147.50;146627;579;45016;-69
2022/10/04 05:51:32;;;;;;;;;2.50;2.50;;;;;20.08;38.90;101135.97;146627;596;45010;-66
2022/10/04 05:54:39;;;;;;;;;3.00;3.00;;;;;20.29;38.37;101139.03;146628;651;45030;-67
2022/10/04 05:58:20;;;;;;;;;;;;;;;;;;;;;
2022/10/04 06:01:51;;;;;;;;;2.75;2.75;;;;;18.55;37.96;100833.16;146629;648;45913;-66
2022/10/04 06:05:18;;;;;;;;;1.00;1.00;;;;;20.35;37.61;101174.25;146629;577;46010;-67
2022/10/04 06:08:48;;;;;;;;;3.00;1.00;;;;;20.24;37.16;101177.53;146630;602;45012;-66
2022/10/04 06:12:20;;;;;;;;;0.00;0.00;;;;;20.20;37.07;101191.50;146625;571;45021;-66
2022/10/04 06:15:55;;;;;;;;;1.25;1.25;;;;;20.09;36.74;101198.31;146620;565;46012;-65
2022/10/04 06:19:25;;;;;;;;;0.25;0.25;;;;;20.01;36.92;101206.06;146628;652;46010;-69
2022/10/04 06:22:52;;;;;;;;;1.75;1.75;;;;;20.04;37.33;101213.13;146622;648;46012;-70
2022/10/04 06:26:23;;;;;;;;;1.50;1.50;;;;;18.11;37.43;100890.84;146627;631;45021;-68
2022/10/04 06:29:44;;;;;;;;;2.00;2.00;;;;;20.00;37.37;101221.81;146623;680;46915;-69
2022/10/04 06:33:19;;;;;;;;;2.00;1.75;;;;;18.88;37.53;101025.69;146630;679;45011;-68
2022/10/04 06:36:41;;;;;;;;;1.67;0.67;;;;;18.27;37.25;100887.72;146626;642;45016;-67
2022/10/04 06:40:20;;;;;;;;;0.00;0.00;;;;;20.43;37.55;101230.56;146628;592;46013;-69
2022/10/04 06:43:50;;;;;;;;;2.00;1.25;;;;;20.56;37.30;101237.91;146626;576;45915;-67
2022/10/04 06:47:17;;;;;;;;;5.00;3.00;;;;;20.56;37.44;101243.16;146627;687;46010;-64
2022/10/04 06:50:43;;;;;;;;;2.00;1.00;;;;;20.50;37.41;101233.34;146630;603;45012;-66
2022/10/04 06:54:26;;;;;;;;;2.33;1.00;;;;;18.56;37.36;100905.84;146631;566;46010;-67
2022/10/04 06:57:58;;;;;;;;;2.00;2.00;;;;;20.39;37.46;101231.38;146629;615;46917;-66
2022/10/04 07:01:25;;;;;;;;;3.00;3.00;;;;;18.48;37.60;100910.06;146626;728;46010;-67
2022/10/04 07:05:05;;;;;;;;;2.50;2.00;;;;;18.50;37.79;100908.31;146627;694;46012;-68
2022/10/04 07:08:32;;;;;;;;;1.75;1.75;;;;;20.43;37.40;101228.81;146625;575;45020;-69
2022/10/04 07:11:59;;;;;;;;;1.67;1.67;;;;;20.70;37.37;101231.09;146628;652;46012;-70
2022/10/04 07:15:11;;;;;;;;;1.00;1.00;;;;;21.09;36.71;101230.03;146604;671;46021;-70
2022/10/04 07:18:18;;;;;;;;;1.50;1.00;;;;;21.47;36.15;101242.97;146595;663;47012;-69
2022/10/04 07:21:27;;;;;;;;;2.00;2.00;;;;;21.82;35.88;101246.09;146603;656;46020;-69
2022/10/04 07:24:34;;;;;;;;;2.00;2.00;;;;;22.07;34.39;101241.13;146597;608;46014;-70
2022/10/04 07:31:27;;;;;;;;;2.33;1.33;;;;;22.45;34.49;101249.50;146598;570;47013;-69
2022/10/04 07:34:30;;;;;;;;;1.67;1.00;;;;;22.64;33.69;101247.06;146603;589;46020;-70
2022/10/04 07:37:28;;;;;;;;;1.00;1.00;;;;;22.82;33.11;101253.41;146600;692;46012;-70
2022/10/04 07:41:03;;;;;;;;;2.25;2.25;;;;;23.03;33.42;101262.47;146603;622;46020;-71
2022/10/04 07:44:10;;;;;;;;;3.00;2.00;;;;;23.32;32.12;101256.53;146599;564;47012;-71
2022/10/04 07:47:26;;;;;;;;;3.25;2.25;;;;;23.55;32.47;101261.97;146604;592;46020;-70
2022/10/04 07:50:59;;;;;;;;;1.50;1.50;;;;;23.71;32.30;101262.12;146597;609;46016;-70
2022/10/04 07:54:40;;;;;;;;;2.50;2.00;;;;;22.05;32.49;100944.44;146601;576;47010;-71
2022/10/04 07:58:23;;;;;;;;;2.75;1.75;;;;;22.85;33.04;101115.06;146598;563;46016;-70
2022/10/04 08:02:00;;;;;;;;;2.50;2.00;;;;;23.88;32.90;101264.84;146602;610;46012;-70
2022/10/04 08:05:32;;;;;;;;;2.50;1.25;;;;;23.89;31.82;101266.59;146599;563;46016;-71
2022/10/04 08:09:15;;;;;;;;;3.00;2.75;;;;;23.92;33.35;101271.03;146602;619;46012;-70
2022/10/04 08:13:00;;;;;;;;;2.00;2.00;;;;;24.00;32.81;101266.69;146598;619;46016;-69
2022/10/04 08:16:08;;;;;;;;;2.25;1.75;;;;;24.11;32.96;101272.91;146629;571;45021;-69
2022/10/04 08:19:38;;;;;;;;;3.00;3.00;;;;;24.18;32.22;101273.81;146626;623;45915;-71
2022/10/04 08:23:11;;;;;;;;;1.00;1.00;;;;;22.67;32.20;101019.78;146629;580;45020;-71
2022/10/04 08:26:30;;;;;;;;;4.00;3.00;;;;;24.20;32.47;101277.34;146623;565;45016;-70
2022/10/04 08:29:56;;;;;;;;;2.25;1.75;;;;;24.28;33.26;101280.03;146626;617;45021;-71
2022/10/04 08:33:13;;;;;;;;;3.50;3.50;;;;;24.38;31.56;101279.19;146627;671;45029;-68
2022/10/04 08:36:51;;;;;;;;;1.50;1.50;;;;;24.48;33.37;101270.41;146626;693;46013;-70
2022/10/04 08:40:32;;;;;;;;;3.50;2.25;;;;;22.97;33.26;100980.31;146623;593;45037;-67
2022/10/04 08:44:09;;;;;;;;;4.75;3.00;;;;;24.84;33.09;101272.25;146625;672;46013;-67
2022/10/04 08:48:04;;;;;;;;;3.00;3.00;;;;;25.03;32.92;101282.88;146625;678;46012;-68
2022/10/04 08:51:36;;;;;;;;;3.00;3.00;;;;;23.45;32.74;100968.13;146623;564;46010;-68
2022/10/04 08:55:13;;;;;;;;;4.00;4.00;;;;;25.42;31.59;101263.47;146627;656;45914;-69
2022/10/04 08:58:29;;;;;;;;;3.00;2.00;;;;;25.47;31.16;101274.94;146629;579;45020;-69
2022/10/04 09:02:08;;;;;;;;;1.00;1.00;;;;;23.76;32.31;100984.09;146625;713;45016;-69
2022/10/04 09:05:55;;;;;;;;;2.00;2.00;;;;;25.50;32.37;101269.62;146625;583;45020;-70
2022/10/04 09:09:49;;;;;;;;;;;;;;;;;;;;;
2022/10/04 09:13:29;;;;;;;;;2.00;1.75;;;;;24.14;31.09;100988.53;146626;605;45021;-69
2022/10/04 09:17:10;;;;;;;;;2.00;2.00;;;;;24.31;30.86;100980.59;146599;569;46016;-69
2022/10/04 09:20:40;;;;;;;;;2.00;2.00;;;;;26.26;31.05;101284.50;146599;607;47010;-68
2022/10/04 09:24:13;;;;;;;;;2.00;2.00;;;;;26.53;30.90;101281.72;146598;729;46016;-69
2022/10/04 09:27:47;;;;;;;;;2.25;2.25;;;;;25.19;31.05;101048.50;146602;646;46010;-68
2022/10/04 09:31:24;;;;;;;;;1.75;1.75;;;;;25.72;31.17;101152.72;146598;649;46012;-68
2022/10/04 09:35:05;;;;;;;;;2.25;2.25;;;;;25.90;31.74;101138.50;146603;683;46010;-67
2022/10/04 09:38:47;;;;;;;;;3.00;3.00;;;;;26.82;31.69;101286.84;146601;636;46016;-68
2022/10/04 09:42:23;;;;;;;;;2.25;2.25;;;;;25.34;31.16;101000.66;146603;660;46010;-68
2022/10/04 09:46:03;;;;;;;;;0.50;0.50;;;;;27.10;30.22;101287.53;146597;579;47014;-68
2022/10/04 09:49:35;;;;;;;;;2.75;2.00;;;;;25.52;30.18;100990.84;146603;610;46020;-69
2022/10/04 09:53:09;;;;;;;;;2.00;2.00;;;;;27.21;30.06;101277.72;146599;567;46016;-68
2022/10/04 09:57:00;;;;;;;;;1.33;1.00;;;;;27.24;29.80;101287.47;146601;611;46012;-69
2022/10/04 10:00:23;;;;;;;;;2.00;2.00;;;;;26.11;29.19;101056.00;146600;635;46016;-68
2022/10/04 10:04:16;;;;;;;;;1.67;1.67;;;;;25.65;30.73;100960.66;146606;704;46020;-69
2022/10/04 10:08:08;;;;;;;;;2.75;2.75;;;;;27.69;28.87;101262.12;146602;584;46942;-69
2022/10/04 10:15:26;;;;;;;;;3.33;2.00;;;;;27.82;28.90;101271.81;146605;571;47012;-68
2022/10/04 10:19:12;;;;;;;;;3.00;3.00;;;;;26.29;30.56;100995.59;146607;576;47010;-68
2022/10/04 10:22:57;;;;;;;;;1.00;1.00;;;;;27.92;29.71;101266.38;146605;600;46013;-68
2022/10/04 10:26:43;;;;;;;;;2.00;2.00;;;;;26.35;29.85;100998.19;146610;635;46020;-69
2022/10/04 10:30:30;;;;;;;;;2.50;2.50;;;;;26.46;28.03;100991.88;146603;643;46017;-69
2022/10/04 10:34:19;;;;;;;;;2.67;2.67;;;;;28.02;29.00;101263.56;146611;569;46020;-69
2022/10/04 10:37:44;;;;;;;;;3.00;3.00;;;;;27.87;28.74;101264.63;146606;577;46017;-68
2022/10/04 10:41:33;;;;;;;;;1.00;1.00;;;;;26.44;29.00;101011.41;146609;563;46020;-69
2022/10/04 10:45:14;;;;;;;;;2.33;2.33;;;;;26.41;29.66;100992.81;146606;661;46017;-67
2022/10/04 10:48:47;;;;;;;;;2.00;2.00;;;;;26.65;29.59;100984.62;146608;617;46027;-68
2022/10/04 10:52:17;;;;;;;;;3.00;2.00;;;;;28.49;29.88;101264.75;146608;649;46017;-70
2022/10/04 10:55:35;;;;;;;;;2.00;2.00;;;;;27.15;29.68;100995.59;146610;667;46020;-69
2022/10/04 10:59:07;;;;;;;;;2.00;2.00;;;;;28.73;28.86;101265.31;146606;587;46013;-69
2022/10/04 11:03:05;;;;;;;;;1.67;1.00;;;;;27.78;28.70;101101.31;146609;605;46029;-68
2022/10/04 11:06:40;;;;;;;;;3.00;3.00;;;;;26.82;29.19;100947.19;146607;587;46016;-68
2022/10/04 11:10:37;;;;;;;;;2.00;1.67;;;;;27.17;26.84;100989.34;146607;572;47018;-68
2022/10/04 11:14:32;;;;;;;;;3.00;2.67;;;;;27.05;26.78;100977.97;146605;640;46016;-69
2022/10/04 11:18:14;;;;;;;;;4.00;4.00;;;;;27.07;28.61;101019.63;146604;569;46020;-69
2022/10/04 11:21:42;;;;;;;;;1.67;1.00;;;;;28.54;28.60;101249.56;146602;570;46016;-69
2022/10/04 11:25:42;;;;;;;;;3.00;2.67;;;;;27.01;28.29;100976.22;146601;612;47010;-69
2022/10/04 11:29:10;;;;;;;;;4.67;4.67;;;;;28.55;28.79;101255.78;146601;585;46016;-68
2022/10/04 11:33:04;;;;;;;;;2.00;2.00;;;;;26.77;28.71;100942.84;146603;637;47010;-69
2022/10/04 11:36:29;;;;;;;;;1.67;1.67;;;;;28.50;25.64;101241.62;146600;609;46017;-69
2022/10/04 11:40:07;;;;;;;;;2.00;2.00;;;;;26.68;26.39;100954.44;146602;652;46031;-68
2022/10/04 11:43:45;;;;;;;;;2.33;2.33;;;;;28.17;27.46;101234.97;146599;584;46025;-69
2022/10/04 11:47:07;;;;;;;;;1.33;1.33;;;;;28.26;27.56;101233.06;146600;629;46020;-69
2022/10/04 11:50:50;;;;;;;;;3.00;2.00;;;;;26.85;28.89;100980.84;146600;618;46034;-69
2022/10/04 11:54:26;;;;;;;;;1.67;1.67;;;;;28.49;28.68;101234.53;146604;629;46020;-69
2022/10/04 11:58:06;;;;;;;;;2.00;2.00;;;;;28.57;27.50;101232.66;146600;623;46017;-68
2022/10/04 12:02:01;;;;;;;;;3.00;3.00;;;;;28.48;27.23;101222.12;146603;626;46010;-69
2022/10/04 12:05:39;;;;;;;;;3.00;3.00;;;;;28.43;28.56;101229.28;146599;617;46915;-70
2022/10/04 12:09:19;;;;;;;;;2.00;2.00;;;;;27.15;28.52;101007.13;146604;586;46020;-70
2022/10/04 12:13:08;;;;;;;;;2.00;2.00;;;;;26.97;28.22;100955.87;146598;649;46016;-70
2022/10/04 12:16:45;;;;;;;;;4.00;2.33;;;;;28.50;26.59;101228.28;146631;597;45030;-70
2022/10/04 12:20:27;;;;;;;;;2.00;2.00;;;;;28.37;26.00;101224.00;146614;578;46017;-70
2022/10/04 12:24:02;;;;;;;;;2.00;2.00;;;;;28.24;27.67;101228.62;146628;574;45020;-71
2022/10/04 12:27:58;;;;;;;;;2.00;2.00;;;;;28.25;27.39;101222.41;146626;597;45036;-70
2022/10/04 12:31:36;;;;;;;;;2.00;2.00;;;;;26.39;27.66;100923.72;146627;590;46010;-70
2022/10/04 12:35:09;;;;;;;;;;;;;;;;;;;;;
2022/10/04 12:38:54;;;;;;;;;2.00;2.00;;;;;27.94;28.82;101222.78;146629;569;45010;-70
2022/10/04 12:42:22;;;;;;;;;;;;;;;;;;;;;
2022/10/04 12:45:36;;;;;;;;;2.67;2.67;;;;;28.08;27.98;101227.97;146631;579;45020;-69
2022/10/04 12:48:57;;;;;;;;;3.00;3.00;;;;;28.18;28.47;101228.72;146624;601;45916;-68
2022/10/04 12:52:31;;;;;;;;;2.00;2.00;;;;;28.28;28.23;101228.56;146627;605;46012;-68
2022/10/04 12:56:00;;;;;;;;;1.33;1.00;;;;;28.31;28.40;101225.84;146624;580;46014;-68
2022/10/04 12:59:42;;;;;;;;;3.00;3.00;;;;;26.68;27.79;100943.81;146629;585;46010;-69
2022/10/04 13:03:07;;;;;;;;;1.00;1.00;;;;;26.71;27.87;100949.97;146627;623;45012;-69
2022/10/04 13:06:46;;;;;;;;;3.00;2.33;;;;;28.43;28.29;101227.50;146628;625;45020;-70
2022/10/04 13:10:28;;;;;;;;;2.00;2.00;;;;;28.44;28.00;101226.63;146628;586;45914;-71
2022/10/04 13:13:51;;;;;;;;;2.00;1.67;;;;;28.23;26.79;101218.88;146620;664;46010;-71
2022/10/04 13:17:13;;;;;;;;;6.00;2.00;;;;;28.07;27.94;101219.09;146597;593;46016;-71
2022/10/04 13:20:59;;;;;;;;;2.00;2.00;;;;;27.12;26.80;101086.97;146605;583;46021;-71
2022/10/04 13:24:53;;;;;;;;;1.67;1.67;;;;;26.35;26.84;100950.34;146598;611;47010;-71
2022/10/04 13:28:20;;;;;;;;;2.67;2.67;;;;;27.84;27.35;101221.16;146601;585;47010;-71
2022/10/04 13:31:41;;;;;;;;;5.00;3.33;;;;;27.75;26.81;101215.91;146598;618;46016;-72
2022/10/04 13:35:18;;;;;;;;;1.00;1.00;;;;;27.59;26.79;101221.41;146601;571;47010;-70
2022/10/04 13:39:06;;;;;;;;;;;;;;;;;;;;;
2022/10/04 13:42:46;;;;;;;;;2.33;2.33;;;;;27.38;27.43;101246.50;146602;611;47010;-72
2022/10/04 13:46:14;;;;;;;;;1.67;1.67;;;;;27.14;26.85;101228.97;146600;593;46024;-72
2022/10/04 13:49:53;;;;;;;;;3.00;1.67;;;;;25.43;27.77;100938.69;146601;569;46030;-71
2022/10/04 13:57:19;;;;;;;;;1.00;1.00;;;;;26.93;27.19;101227.34;146604;573;46021;-70
2022/10/04 14:00:25;;;;;;;;;4.00;1.33;;;;;26.89;27.00;101236.25;146599;569;46012;-71
2022/10/04 14:04:10;;;;;;;;;3.00;2.00;;;;;26.93;27.73;101231.78;146600;643;47012;-72
2022/10/04 14:07:39;;;;;;;;;3.00;2.00;;;;;26.99;27.40;101233.53;146602;577;46016;-71
2022/10/04 14:11:05;;;;;;;;;2.33;2.00;;;;;26.03;28.05;101055.16;146602;587;46030;-70
2022/10/04 14:14:46;;;;;;;;;2.75;2.75;;;;;27.12;27.29;101228.06;146600;659;46016;-71
2022/10/04 14:18:15;;;;;;;;;2.00;2.00;;;;;27.07;28.12;101224.56;146602;591;47011;-70
2022/10/04 14:21:34;;;;;;;;;1.00;1.00;;;;;27.03;27.97;101222.81;146600;629;46016;-70
2022/10/04 14:25:11;;;;;;;;;2.33;2.00;;;;;25.28;28.13;100942.28;146605;566;46020;-71
2022/10/04 14:28:51;;;;;;;;;2.00;1.33;;;;;26.89;28.45;101236.25;146599;585;46016;-71
2022/10/04 14:32:27;;;;;;;;;2.67;2.33;;;;;26.83;28.29;101236.31;146600;569;47010;-72
2022/10/04 14:35:36;;;;;;;;;3.33;2.00;;;;;26.72;27.42;101238.16;146598;655;47012;-71
2022/10/04 14:39:19;;;;;;;;;2.00;2.00;;;;;25.14;28.35;100998.97;146603;566;46033;-72
2022/10/04 14:42:55;;;;;;;;;5.67;3.67;;;;;25.34;28.69;101080.28;146598;600;47012;-71
2022/10/04 14:46:36;;;;;;;;;4.00;1.67;;;;;24.35;28.39;100951.41;146598;571;48012;-73
2022/10/04 14:50:04;;;;;;;;;1.67;1.67;;;;;25.82;29.47;101242.12;146600;579;46012;-71
2022/10/04 14:53:44;;;;;;;;;1.67;1.33;;;;;23.94;29.30;100946.16;146602;569;46032;-72
2022/10/04 14:57:13;;;;;;;;;3.67;3.67;;;;;25.55;29.38;101243.94;146598;612;46916;-72
2022/10/04 15:00:57;;;;;;;;;3.00;3.00;;;;;23.76;29.44;100954.09;146603;577;46010;-71
2022/10/04 15:04:27;;;;;;;;;2.00;2.00;;;;;25.30;29.72;101245.75;146601;571;46016;-72
2022/10/04 15:07:49;;;;;;;;;;;;;;;;;;;;;
2022/10/04 15:11:48;;;;;;;;;3.00;3.00;;;;;23.34;29.87;100955.78;146600;623;46035;-72
2022/10/04 15:15:20;;;;;;;;;2.00;2.00;;;;;23.12;29.74;100950.41;146601;605;47010;-72
2022/10/04 15:19:09;;;;;;;;;;;;;;;;;;;;;
2022/10/04 15:23:06;;;;;;;;;3.00;3.00;;;;;22.88;30.38;100948.53;146602;611;46020;-72
2022/10/04 15:26:42;;;;;;;;;2.00;2.00;;;;;24.66;29.35;101264.28;146598;710;47014;-72
2022/10/04 15:30:20;;;;;;;;;1.33;1.33;;;;;22.83;29.66;100966.09;146600;603;48020;-72
2022/10/04 15:33:47;;;;;;;;;2.25;2.25;;;;;22.78;29.60;100979.31;146599;579;46916;-70
2022/10/04 15:37:15;;;;;;;;;1.67;1.67;;;;;24.23;29.10;101273.81;146602;563;47010;-71
2022/10/04 15:40:29;;;;;;;;;2.33;1.33;;;;;23.93;28.90;101279.00;146599;639;46916;-72
2022/10/04 15:44:13;;;;;;;;;2.67;1.00;;;;;21.91;29.63;100976.91;146604;570;46020;-71
2022/10/04 15:47:40;;;;;;;;;0.00;0.00;;;;;23.44;29.88;101288.38;146599;595;46017;-71
2022/10/04 15:51:02;;;;;;;;;2.00;1.00;;;;;23.27;29.47;101275.91;146603;609;46020;-72
2022/10/04 15:54:21;;;;;;;;;1.00;1.00;;;;;21.64;30.27;101019.75;146599;604;46012;-73
2022/10/04 15:58:08;;;;;;;;;1.33;1.33;;;;;21.28;29.81;100977.09;146598;618;47010;-71
2022/10/04 16:01:38;;;;;;;;;1.00;1.00;;;;;21.16;29.79;100978.75;146598;570;46015;-71
2022/10/04 16:05:20;;;;;;;;;1.75;0.75;;;;;22.78;30.33;101287.75;146601;571;46012;-71
2022/10/04 16:08:58;;;;;;;;;3.00;1.00;;;;;22.72;30.36;101290.34;146598;596;46915;-71
2022/10/04 16:12:28;;;;;;;;;2.75;1.75;;;;;22.74;30.50;101293.88;146602;653;46010;-72
2022/10/04 16:15:48;;;;;;;;;0.00;0.00;;;;;22.72;29.67;101300.91;146626;570;45915;-71
2022/10/04 16:19:31;;;;;;;;;0.00;0.00;;;;;20.87;29.19;101002.09;146629;579;45020;-71
2022/10/04 16:22:39;;;;;;;;;1.00;1.00;;;;;22.52;28.31;101309.53;146628;572;46915;-70
2022/10/04 16:25:42;;;;;;;;;1.00;1.00;;;;;22.41;29.57;101318.19;146701;575;45023;-72